Time;durP1;ratioP1;P1;durP2;ratioP2;P2;SDS_P1;SDS_P2;PMS_P1;PMS_P2;Temp;Humidity;BMP_temperature;BMP_pressure;BME280_temperature;BME280_humidity;BME280_pressure;Samples;Min_cycle;Max_cycle;Signal;HPM_P1;HPM_P2
2022/03/23 00:01:30;;;;;;;35.17;9.80;;;;;;;;;;5080096;28;20028;-69
2022/03/23 00:03:56;;;;;;;28.88;7.28;;;;;;;;;;5069009;28;20020;-65
2022/03/23 00:06:22;;;;;;;30.00;9.82;;;;;;;;;;5074511;28;20107;-70
2022/03/23 00:08:49;;;;;;;29.63;11.35;;;;;;;;;;5074152;28;20442;-66
2022/03/23 00:11:15;;;;;;;20.23;6.13;;;;;;;;;;5069515;28;20035;-66
2022/03/23 00:13:40;;;;;;;26.85;5.80;;;;;;;;;;5078928;28;20367;-65
2022/03/23 00:16:05;;;;;;;20.63;6.72;;;;;;;;;;5079277;28;20059;-65
2022/03/23 00:18:31;;;;;;;24.98;6.78;;;;;;;;;;5075867;28;20023;-65
2022/03/23 00:20:56;;;;;;;21.65;5.60;;;;;;;;;;5074496;28;20028;-68
2022/03/23 00:23:21;;;;;;;19.60;7.25;;;;;;;;;;5079843;28;20436;-68
2022/03/23 00:25:47;;;;;;;35.33;5.88;;;;;;;;;;5080540;28;20594;-66
2022/03/23 00:28:12;;;;;;;23.65;5.15;;;;;;;;;;5078558;28;20359;-69
2022/03/23 00:30:38;;;;;;;17.65;5.10;;;;;;;;;;5077051;28;20131;-66
2022/03/23 00:33:03;;;;;;;17.95;5.05;;;;;;;;;;5069356;28;20059;-64
2022/03/23 00:35:32;;;;;;;21.73;6.07;;;;;;;;;;5072689;28;20020;-66
2022/03/23 00:38:01;;;;;;;22.63;5.20;;;;;;;;;;5068202;28;20367;-69
2022/03/23 00:40:28;;;;;;;18.55;5.60;;;;;;;;;;5078753;28;20023;-66
2022/03/23 00:42:53;;;;;;;18.90;4.43;;;;;;;;;;5080152;28;20028;-68
2022/03/23 00:45:19;;;;;;;23.10;4.93;;;;;;;;;;5079993;28;20038;-67
2022/03/23 00:47:46;;;;;;;13.18;4.50;;;;;;;;;;5078828;28;20122;-67
2022/03/23 00:50:12;;;;;;;14.45;3.67;;;;;;;;;;5076396;28;20097;-67
2022/03/23 00:52:37;;;;;;;20.10;4.40;;;;;;;;;;5044573;28;20378;-66
2022/03/23 00:55:03;;;;;;;14.38;4.20;;;;;;;;;;5072047;28;20668;-67
2022/03/23 00:57:29;;;;;;;11.82;4.40;;;;;;;;;;5062015;28;20893;-67
2022/03/23 00:59:54;;;;;;;20.92;4.47;;;;;;;;;;5078727;28;20095;-68
2022/03/23 01:02:19;;;;;;;20.92;5.65;;;;;;;;;;5078764;28;20745;-66
2022/03/23 01:04:45;;;;;;;16.25;5.13;;;;;;;;;;5075912;28;20069;-67
2022/03/23 01:07:10;;;;;;;13.52;3.88;;;;;;;;;;5067740;28;20028;-67
2022/03/23 01:09:35;;;;;;;12.93;4.15;;;;;;;;;;5058335;28;20472;-69
2022/03/23 01:12:02;;;;;;;18.73;4.22;;;;;;;;;;5079677;28;20103;-67
2022/03/23 01:14:28;;;;;;;8.68;4.13;;;;;;;;;;5070858;28;20062;-69
2022/03/23 01:16:54;;;;;;;19.00;6.00;;;;;;;;;;5048875;28;20070;-67
2022/03/23 01:19:25;;;;;;;20.98;5.63;;;;;;;;;;5069152;28;20408;-66
2022/03/23 01:21:51;;;;;;;16.48;6.78;;;;;;;;;;5079118;28;20039;-66
2022/03/23 01:24:16;;;;;;;31.70;8.05;;;;;;;;;;5068588;28;20016;-70
2022/03/23 01:26:41;;;;;;;15.98;6.13;;;;;;;;;;5072611;28;20106;-67
2022/03/23 01:29:08;;;;;;;17.77;5.38;;;;;;;;;;5075671;28;20103;-66
2022/03/23 01:31:34;;;;;;;16.45;5.40;;;;;;;;;;5079691;28;20045;-70
2022/03/23 01:33:59;;;;;;;15.02;5.03;;;;;;;;;;5068702;28;20024;-67
2022/03/23 01:36:26;;;;;;;17.95;6.20;;;;;;;;;;5079202;28;20034;-67
2022/03/23 01:38:52;;;;;;;18.85;4.93;;;;;;;;;;5066557;28;20085;-67
2022/03/23 01:41:17;;;;;;;14.68;4.85;;;;;;;;;;5077556;28;20020;-66
2022/03/23 01:43:42;;;;;;;16.48;4.68;;;;;;;;;;5078548;28;20051;-70
2022/03/23 01:46:08;;;;;;;13.73;4.72;;;;;;;;;;5077505;28;20028;-66
2022/03/23 01:48:33;;;;;;;17.92;5.00;;;;;;;;;;5080257;28;20241;-67
2022/03/23 01:50:59;;;;;;;9.02;4.03;;;;;;;;;;5082769;28;21042;-66
2022/03/23 01:53:24;;;;;;;17.13;4.88;;;;;;;;;;5076424;28;20490;-67
2022/03/23 01:55:50;;;;;;;16.52;4.70;;;;;;;;;;5077211;28;20447;-66
2022/03/23 01:58:15;;;;;;;15.50;4.70;;;;;;;;;;5073849;28;20027;-67
2022/03/23 02:00:41;;;;;;;13.70;4.80;;;;;;;;;;5079134;28;20022;-68
2022/03/23 02:03:06;;;;;;;20.08;5.18;;;;;;;;;;5082063;28;20423;-69
2022/03/23 02:05:32;;;;;;;19.42;4.88;;;;;;;;;;5064068;28;20025;-69
2022/03/23 02:07:57;;;;;;;14.68;5.53;;;;;;;;;;5081796;28;20047;-70
2022/03/23 02:10:23;;;;;;;14.10;4.80;;;;;;;;;;5079216;28;20024;-66
2022/03/23 02:12:48;;;;;;;15.30;4.65;;;;;;;;;;5052493;28;20035;-66
2022/03/23 02:15:17;;;;;;;16.40;5.00;;;;;;;;;;5075798;28;20054;-66
2022/03/23 02:17:43;;;;;;;16.08;4.65;;;;;;;;;;5081215;28;20028;-66
2022/03/23 02:20:09;;;;;;;19.60;5.32;;;;;;;;;;5082232;28;20401;-66
2022/03/23 02:22:35;;;;;;;11.55;4.45;;;;;;;;;;5082396;28;20110;-67
2022/03/23 02:25:00;;;;;;;18.05;5.50;;;;;;;;;;5081563;28;20131;-69
2022/03/23 02:27:26;;;;;;;14.45;5.65;;;;;;;;;;5081417;28;20044;-67
2022/03/23 02:29:53;;;;;;;16.40;5.10;;;;;;;;;;5082328;28;20020;-69
2022/03/23 02:32:19;;;;;;;16.15;6.15;;;;;;;;;;5074755;28;20035;-67
2022/03/23 02:34:44;;;;;;;14.85;5.43;;;;;;;;;;5058287;28;20435;-66
2022/03/23 02:37:09;;;;;;;16.30;5.45;;;;;;;;;;5075719;28;20031;-66
2022/03/23 02:39:35;;;;;;;15.57;6.28;;;;;;;;;;5068010;28;20097;-68
2022/03/23 02:42:00;;;;;;;15.65;6.32;;;;;;;;;;5071039;28;20490;-65
2022/03/23 02:44:29;;;;;;;16.13;5.03;;;;;;;;;;5082396;28;20112;-69
2022/03/23 02:46:55;;;;;;;18.42;6.13;;;;;;;;;;5081042;28;20056;-69
2022/03/23 02:49:20;;;;;;;17.08;6.22;;;;;;;;;;5081347;28;20074;-67
2022/03/23 02:51:46;;;;;;;16.67;7.13;;;;;;;;;;5081555;28;20089;-68
2022/03/23 03:02:37;;;;;;;16.75;6.63;;;;;;;;;;5075283;28;20043;-71
2022/03/23 03:05:07;;;;;;;25.55;7.65;;;;;;;;;;5075685;28;20055;-68
2022/03/23 03:08:44;;;;;;;19.90;7.00;;;;;;;;;;5069259;28;20028;-67
2022/03/23 03:10:19;;;;;;;19.38;7.57;;;;;;;;;;5072576;28;20028;-66
2022/03/23 03:12:45;;;;;;;17.75;7.43;;;;;;;;;;5081065;28;20061;-67
2022/03/23 03:15:10;;;;;;;22.63;8.77;;;;;;;;;;5076275;28;20052;-67
2022/03/23 03:17:36;;;;;;;23.48;8.52;;;;;;;;;;5057055;28;20408;-66
2022/03/23 03:20:03;;;;;;;22.35;8.93;;;;;;;;;;5080965;28;20042;-69
2022/03/23 03:22:33;;;;;;;18.27;9.77;;;;;;;;;;5080817;28;20338;-67
2022/03/23 03:24:59;;;;;;;19.77;10.52;;;;;;;;;;5079945;28;20028;-68
2022/03/23 03:27:24;;;;;;;23.35;10.80;;;;;;;;;;5070887;28;20036;-67
2022/03/23 03:29:49;;;;;;;20.52;10.75;;;;;;;;;;5061321;28;20037;-72
2022/03/23 03:32:15;;;;;;;26.33;10.68;;;;;;;;;;5079466;28;20056;-67
2022/03/23 03:34:40;;;;;;;21.30;10.13;;;;;;;;;;5081199;28;20031;-66
2022/03/23 03:37:06;;;;;;;18.52;8.00;;;;;;;;;;5080478;28;20356;-66
2022/03/23 03:39:31;;;;;;;17.02;7.78;;;;;;;;;;5076037;28;20020;-66
2022/03/23 03:41:57;;;;;;;22.70;8.43;;;;;;;;;;5067631;28;20644;-67
2022/03/23 03:44:22;;;;;;;17.05;7.75;;;;;;;;;;5078045;28;20029;-67
2022/03/23 03:46:47;;;;;;;14.95;7.35;;;;;;;;;;5080712;28;20139;-67
2022/03/23 03:49:15;;;;;;;11.18;7.43;;;;;;;;;;5079744;28;20064;-69
2022/03/23 03:51:40;;;;;;;19.33;7.13;;;;;;;;;;5080253;28;20012;-67
2022/03/23 03:54:06;;;;;;;17.67;6.88;;;;;;;;;;5079806;28;20343;-67
2022/03/23 03:56:31;;;;;;;14.70;6.85;;;;;;;;;;5080736;28;20023;-68
2022/03/23 03:58:57;;;;;;;16.17;7.60;;;;;;;;;;5069555;28;20149;-68
2022/03/23 04:01:22;;;;;;;13.65;6.70;;;;;;;;;;5080795;28;20064;-67
2022/03/23 04:03:48;;;;;;;20.23;7.10;;;;;;;;;;5079259;28;20028;-70
2022/03/23 04:06:13;;;;;;;14.70;6.63;;;;;;;;;;5079275;28;20072;-67
2022/03/23 04:08:38;;;;;;;22.33;7.50;;;;;;;;;;5067739;28;20036;-69
2022/03/23 04:11:04;;;;;;;17.92;7.40;;;;;;;;;;5079697;28;20470;-67
2022/03/23 04:13:29;;;;;;;19.38;7.40;;;;;;;;;;5078748;28;20091;-67
2022/03/23 04:15:55;;;;;;;14.82;6.88;;;;;;;;;;5078633;28;20568;-68
2022/03/23 04:18:20;;;;;;;21.88;7.60;;;;;;;;;;5079198;28;20447;-67
2022/03/23 04:20:45;;;;;;;12.57;6.53;;;;;;;;;;5074164;28;20069;-71
2022/03/23 04:23:11;;;;;;;18.10;6.97;;;;;;;;;;5068831;28;20024;-70
2022/03/23 04:25:36;;;;;;;16.63;6.90;;;;;;;;;;5074765;28;20081;-67
2022/03/23 04:28:02;;;;;;;14.57;7.20;;;;;;;;;;5059828;28;20036;-71
2022/03/23 04:30:28;;;;;;;14.07;6.32;;;;;;;;;;5080095;28;20135;-66
2022/03/23 04:32:53;;;;;;;26.27;8.38;;;;;;;;;;5079196;28;20054;-66
2022/03/23 04:35:21;;;;;;;16.67;7.30;;;;;;;;;;5079679;28;20744;-67
2022/03/23 04:37:46;;;;;;;21.80;7.93;;;;;;;;;;5079952;28;20081;-67
2022/03/23 04:40:14;;;;;;;19.20;7.47;;;;;;;;;;5080144;28;20035;-66
2022/03/23 04:42:40;;;;;;;20.30;7.55;;;;;;;;;;5061598;28;20040;-67
2022/03/23 04:45:06;;;;;;;14.40;7.25;;;;;;;;;;5080347;28;20050;-67
2022/03/23 04:47:33;;;;;;;22.42;13.10;;;;;;;;;;5067152;28;20047;-66
2022/03/23 04:49:58;;;;;;;27.60;15.07;;;;;;;;;;5066488;28;20043;-70
2022/03/23 04:52:24;;;;;;;45.28;19.77;;;;;;;;;;5067133;28;20032;-68
2022/03/23 04:54:49;;;;;;;30.88;16.80;;;;;;;;;;5067177;28;20056;-67
2022/03/23 04:57:14;;;;;;;31.50;14.60;;;;;;;;;;5067287;28;20352;-70
2022/03/23 04:59:40;;;;;;;35.55;17.60;;;;;;;;;;5073178;28;20863;-67
2022/03/23 05:02:05;;;;;;;36.45;19.63;;;;;;;;;;5079945;28;20338;-67
2022/03/23 05:04:31;;;;;;;30.75;15.93;;;;;;;;;;5079660;28;20105;-69
2022/03/23 05:06:56;;;;;;;32.72;14.57;;;;;;;;;;5080058;28;20032;-70
2022/03/23 05:09:22;;;;;;;30.00;14.95;;;;;;;;;;5076165;28;20035;-66
2022/03/23 05:11:47;;;;;;;27.27;14.75;;;;;;;;;;5068021;28;20028;-64
2022/03/23 05:14:12;;;;;;;31.42;16.17;;;;;;;;;;5067919;28;20348;-72
2022/03/23 05:16:38;;;;;;;29.02;16.88;;;;;;;;;;5073426;28;20113;-68
2022/03/23 05:19:03;;;;;;;40.50;22.23;;;;;;;;;;5065905;28;20035;-67
2022/03/23 05:21:29;;;;;;;40.17;18.73;;;;;;;;;;5067576;28;20024;-67
2022/03/23 05:23:55;;;;;;;33.30;17.33;;;;;;;;;;5068463;28;20027;-65
2022/03/23 05:26:20;;;;;;;40.95;17.90;;;;;;;;;;5071772;28;20024;-68
2022/03/23 05:28:45;;;;;;;30.10;15.82;;;;;;;;;;5076329;28;20028;-66
2022/03/23 05:31:11;;;;;;;42.40;21.33;;;;;;;;;;5074397;28;20459;-66
2022/03/23 05:33:36;;;;;;;156.60;81.57;;;;;;;;;;5078354;28;21196;-66
2022/03/23 05:36:01;;;;;;;70.25;38.88;;;;;;;;;;5082065;28;20020;-64
2022/03/23 05:38:27;;;;;;;52.55;30.10;;;;;;;;;;5082742;28;20143;-64
2022/03/23 05:40:52;;;;;;;48.05;22.70;;;;;;;;;;5081799;28;20036;-70
2022/03/23 05:43:19;;;;;;;49.58;21.85;;;;;;;;;;5068379;28;20107;-71
2022/03/23 05:45:45;;;;;;;61.55;29.90;;;;;;;;;;5072471;28;20016;-67
2022/03/23 05:48:10;;;;;;;41.22;21.50;;;;;;;;;;5071147;28;20358;-68
2022/03/23 05:50:35;;;;;;;52.42;29.73;;;;;;;;;;5041694;28;20039;-67
2022/03/23 05:53:01;;;;;;;43.60;21.85;;;;;;;;;;5045589;28;20339;-65
2022/03/23 05:55:26;;;;;;;43.05;23.30;;;;;;;;;;5079653;28;20028;-66
2022/03/23 05:57:52;;;;;;;51.03;28.23;;;;;;;;;;5081263;28;20525;-64
2022/03/23 06:00:17;;;;;;;46.72;25.02;;;;;;;;;;5081926;28;20027;-66
2022/03/23 06:02:42;;;;;;;49.10;26.95;;;;;;;;;;5081432;28;20110;-68
2022/03/23 06:05:09;;;;;;;74.22;42.70;;;;;;;;;;5077643;28;20064;-66
2022/03/23 06:07:35;;;;;;;87.00;44.63;;;;;;;;;;5070239;28;20028;-66
2022/03/23 06:10:01;;;;;;;73.35;38.95;;;;;;;;;;5070486;28;20054;-69
2022/03/23 06:12:26;;;;;;;82.95;43.30;;;;;;;;;;5070603;28;20439;-66
2022/03/23 06:14:52;;;;;;;76.72;40.88;;;;;;;;;;5070505;28;20132;-65
2022/03/23 06:17:17;;;;;;;55.95;29.75;;;;;;;;;;5077002;28;20389;-65
2022/03/23 06:19:42;;;;;;;62.33;36.50;;;;;;;;;;5082371;28;20059;-67
2022/03/23 06:22:08;;;;;;;59.25;33.03;;;;;;;;;;5081171;28;20036;-64
2022/03/23 06:24:33;;;;;;;47.47;26.42;;;;;;;;;;5082275;28;20709;-64
2022/03/23 06:26:59;;;;;;;67.00;27.25;;;;;;;;;;5071545;28;22188;-64
2022/03/23 06:29:25;;;;;;;48.70;25.52;;;;;;;;;;5070589;28;20047;-66
2022/03/23 06:31:51;;;;;;;45.50;24.63;;;;;;;;;;5074484;28;20020;-66
2022/03/23 06:34:16;;;;;;;42.33;23.35;;;;;;;;;;5077033;28;20100;-66
2022/03/23 06:36:41;;;;;;;38.13;20.55;;;;;;;;;;5068633;28;20371;-68
2022/03/23 06:39:07;;;;;;;35.78;20.73;;;;;;;;;;5075531;28;20020;-66
2022/03/23 06:41:32;;;;;;;39.85;20.65;;;;;;;;;;5064153;28;20020;-69
2022/03/23 06:43:58;;;;;;;33.22;20.38;;;;;;;;;;5081056;28;20496;-65
2022/03/23 06:46:23;;;;;;;42.13;21.52;;;;;;;;;;5077744;28;20034;-71
2022/03/23 06:48:49;;;;;;;47.13;24.55;;;;;;;;;;5066889;28;20024;-66
2022/03/23 06:51:14;;;;;;;36.72;19.92;;;;;;;;;;5076794;28;20103;-65
2022/03/23 06:53:40;;;;;;;37.92;19.55;;;;;;;;;;5070607;28;20036;-66
2022/03/23 06:56:05;;;;;;;39.13;21.30;;;;;;;;;;5080705;28;20549;-70
2022/03/23 06:58:31;;;;;;;38.90;22.55;;;;;;;;;;5075413;28;20032;-71
2022/03/23 07:00:57;;;;;;;37.65;20.13;;;;;;;;;;5049469;28;20032;-70
2022/03/23 07:03:23;;;;;;;38.60;24.70;;;;;;;;;;5069748;28;20474;-69
2022/03/23 07:05:48;;;;;;;37.90;18.85;;;;;;;;;;5069455;28;20097;-69
2022/03/23 07:10:57;;;;;;;23.15;10.48;;;;;;;;;;5068922;28;20047;-69
2022/03/23 07:13:23;;;;;;;24.90;11.70;;;;;;;;;;5067666;28;20466;-72
2022/03/23 07:15:48;;;;;;;26.08;12.75;;;;;;;;;;5066708;28;21029;-70
2022/03/23 07:18:15;;;;;;;19.13;10.35;;;;;;;;;;5068562;28;20028;-71
2022/03/23 07:20:41;;;;;;;17.85;9.20;;;;;;;;;;5068725;28;20032;-72
2022/03/23 07:23:07;;;;;;;34.72;15.85;;;;;;;;;;5068322;28;20439;-72
2022/03/23 07:25:32;;;;;;;27.05;11.50;;;;;;;;;;5069116;28;20031;-71
2022/03/23 07:27:59;;;;;;;16.17;8.73;;;;;;;;;;5068194;28;20036;-70
2022/03/23 07:30:26;;;;;;;30.45;16.05;;;;;;;;;;5068652;28;20044;-70
2022/03/23 07:32:53;;;;;;;32.08;14.43;;;;;;;;;;5067533;28;20035;-74
2022/03/23 07:35:21;;;;;;;80.10;30.95;;;;;;;;;;5068331;28;20480;-70
2022/03/23 07:37:49;;;;;;;38.33;17.63;;;;;;;;;;5050365;28;20439;-71
2022/03/23 07:40:14;;;;;;;37.55;17.17;;;;;;;;;;5068043;28;20028;-71
2022/03/23 07:42:44;;;;;;;24.75;11.93;;;;;;;;;;5057484;28;20077;-70
2022/03/23 07:45:10;;;;;;;23.23;10.95;;;;;;;;;;5079121;28;20042;-70
2022/03/23 07:47:36;;;;;;;38.85;17.42;;;;;;;;;;5068876;28;20118;-69
2022/03/23 07:50:02;;;;;;;53.30;30.52;;;;;;;;;;5045476;28;20027;-72
2022/03/23 07:52:27;;;;;;;60.83;28.30;;;;;;;;;;5067269;28;20151;-70
2022/03/23 07:54:53;;;;;;;50.75;24.90;;;;;;;;;;5068112;28;20499;-72
2022/03/23 07:57:22;;;;;;;39.97;20.17;;;;;;;;;;5067404;28;20363;-75
2022/03/23 07:59:48;;;;;;;55.58;25.73;;;;;;;;;;5049146;28;20340;-73
2022/03/23 08:02:13;;;;;;;104.50;52.45;;;;;;;;;;5068337;28;20024;-71
2022/03/23 08:04:39;;;;;;;45.42;22.02;;;;;;;;;;5068714;28;20103;-67
2022/03/23 08:07:05;;;;;;;32.35;15.73;;;;;;;;;;5066837;28;20383;-70
2022/03/23 08:09:32;;;;;;;26.30;11.50;;;;;;;;;;5067349;28;20020;-69
2022/03/23 08:11:58;;;;;;;15.40;6.60;;;;;;;;;;5049349;28;20028;-69
2022/03/23 08:14:24;;;;;;;22.25;12.63;;;;;;;;;;5067057;28;20044;-69
2022/03/23 08:16:52;;;;;;;18.55;9.13;;;;;;;;;;5050994;28;20109;-69
2022/03/23 08:19:19;;;;;;;14.50;8.10;;;;;;;;;;5068525;28;20097;-69
2022/03/23 08:21:44;;;;;;;11.85;6.00;;;;;;;;;;5067976;28;20448;-69
2022/03/23 08:24:10;;;;;;;14.35;8.57;;;;;;;;;;5068419;28;20028;-68
2022/03/23 08:26:36;;;;;;;15.55;7.55;;;;;;;;;;5063845;28;20035;-69
2022/03/23 08:29:01;;;;;;;9.95;5.90;;;;;;;;;;5067743;28;20043;-71
2022/03/23 08:31:28;;;;;;;13.98;6.70;;;;;;;;;;5067474;28;20031;-71
2022/03/23 08:33:53;;;;;;;25.38;14.07;;;;;;;;;;5055297;28;20439;-70
2022/03/23 08:36:18;;;;;;;10.23;5.30;;;;;;;;;;5079990;28;20042;-69
2022/03/23 08:38:44;;;;;;;19.92;10.80;;;;;;;;;;5074799;28;20058;-69
2022/03/23 08:41:09;;;;;;;10.02;5.25;;;;;;;;;;5067006;28;20099;-75
2022/03/23 08:43:34;;;;;;;21.05;12.73;;;;;;;;;;5068814;28;20469;-71
2022/03/23 08:46:00;;;;;;;14.05;5.78;;;;;;;;;;5077048;28;20024;-70
2022/03/23 08:48:26;;;;;;;24.90;12.95;;;;;;;;;;5079980;28;21083;-70
2022/03/23 08:50:51;;;;;;;11.85;7.53;;;;;;;;;;5076876;28;20039;-72
2022/03/23 08:53:17;;;;;;;6.57;4.00;;;;;;;;;;5070880;28;20031;-68
2022/03/23 08:55:42;;;;;;;12.02;6.13;;;;;;;;;;5080527;28;20851;-72
2022/03/23 08:58:08;;;;;;;9.68;4.57;;;;;;;;;;5068159;28;20075;-68
2022/03/23 09:00:34;;;;;;;7.10;5.43;;;;;;;;;;5077335;28;20029;-69
2022/03/23 09:03:00;;;;;;;7.63;4.45;;;;;;;;;;5083651;28;22069;-70
2022/03/23 09:05:25;;;;;;;8.32;4.55;;;;;;;;;;5084364;28;20024;-68
2022/03/23 09:07:50;;;;;;;10.93;4.25;;;;;;;;;;5082909;28;20415;-68
2022/03/23 09:10:18;;;;;;;10.25;4.68;;;;;;;;;;5083161;28;20059;-73
2022/03/23 09:12:44;;;;;;;7.10;4.40;;;;;;;;;;5082302;28;20024;-68
2022/03/23 09:15:10;;;;;;;10.43;4.63;;;;;;;;;;5083139;28;20048;-72
2022/03/23 09:17:36;;;;;;;12.80;6.43;;;;;;;;;;5075879;28;20028;-71
2022/03/23 09:20:03;;;;;;;8.40;4.72;;;;;;;;;;5074673;28;20023;-72
2022/03/23 09:22:28;;;;;;;14.63;9.25;;;;;;;;;;5083272;28;20519;-71
2022/03/23 09:24:54;;;;;;;9.05;4.20;;;;;;;;;;5083046;28;20019;-70
2022/03/23 09:27:19;;;;;;;19.25;11.40;;;;;;;;;;5083435;28;20028;-69
2022/03/23 09:29:45;;;;;;;9.70;4.80;;;;;;;;;;5083771;28;20080;-72
2022/03/23 09:50:40;;;;;;;10.35;6.35;;;;;;;;;;5140800;27;20119;-74
2022/03/23 09:53:06;;;;;;;15.40;5.88;;;;;;;;;;5130802;27;20069;-74
2022/03/23 09:55:31;;;;;;;11.95;5.13;;;;;;;;;;5131050;27;20019;-70
2022/03/23 09:57:58;;;;;;;9.77;6.50;;;;;;;;;;5126344;27;20058;-71
2022/03/23 10:00:27;;;;;;;7.60;4.82;;;;;;;;;;5123841;27;20032;-74
2022/03/23 10:03:11;;;;;;;7.00;4.22;;;;;;;;;;5124827;27;20050;-72
2022/03/23 10:05:55;;;;;;;12.13;5.80;;;;;;;;;;5120058;27;20490;-73
2022/03/23 10:08:39;;;;;;;11.13;4.47;;;;;;;;;;5122166;27;20023;-74
2022/03/23 10:11:23;;;;;;;12.73;4.68;;;;;;;;;;5123878;27;20362;-73
2022/03/23 10:14:07;;;;;;;9.57;4.30;;;;;;;;;;5127644;27;20027;-74
2022/03/23 10:16:41;;;;;;;12.82;5.10;;;;;;;;;;5134068;27;20019;-73
2022/03/23 10:19:06;;;;;;;13.80;4.70;;;;;;;;;;5132333;27;20046;-71
2022/03/23 10:21:33;;;;;;;16.00;8.90;;;;;;;;;;5125227;27;20025;-75
2022/03/23 10:24:02;;;;;;;15.73;8.18;;;;;;;;;;5131757;27;20029;-70
2022/03/23 10:26:28;;;;;;;13.90;4.85;;;;;;;;;;5129915;27;20015;-71
2022/03/23 10:28:54;;;;;;;9.98;5.03;;;;;;;;;;5133834;27;20370;-69
2022/03/23 10:31:24;;;;;;;11.40;5.90;;;;;;;;;;5131019;27;20019;-70
2022/03/23 10:34:12;;;;;;;9.52;4.72;;;;;;;;;;5132031;27;20026;-74
2022/03/23 10:36:40;;;;;;;10.40;5.03;;;;;;;;;;5130387;27;20034;-72
2022/03/23 10:39:11;;;;;;;10.75;5.07;;;;;;;;;;5132473;27;20038;-71
2022/03/23 10:41:36;;;;;;;8.40;3.97;;;;;;;;;;5131770;27;20026;-71
2022/03/23 10:44:02;;;;;;;6.97;4.40;;;;;;;;;;5133341;27;20023;-71
2022/03/23 10:46:27;;;;;;;8.57;4.00;;;;;;;;;;5130647;27;20031;-73
2022/03/23 10:48:59;;;;;;;11.55;4.47;;;;;;;;;;5134303;27;20039;-74
2022/03/23 10:51:36;;;;;;;58.63;30.40;;;;;;;;;;5119521;27;20449;-71
2022/03/23 10:54:15;;;;;;;13.57;4.90;;;;;;;;;;5120487;27;20027;-72
2022/03/23 10:56:40;;;;;;;10.98;4.45;;;;;;;;;;5116984;27;20364;-70
2022/03/23 10:59:22;;;;;;;12.40;5.53;;;;;;;;;;5110044;27;20047;-70
2022/03/23 11:02:07;;;;;;;12.98;5.75;;;;;;;;;;5108114;27;20115;-71
2022/03/23 11:04:35;;;;;;;8.98;4.75;;;;;;;;;;5113387;27;20023;-72
2022/03/23 11:07:01;;;;;;;11.07;5.45;;;;;;;;;;5107225;27;20427;-72
2022/03/23 11:18:10;;;;;;;14.20;8.18;;;;;;;;;;5101378;27;20058;-73
2022/03/23 11:20:54;;;;;;;16.27;10.57;;;;;;;;;;5103313;27;20600;-70
2022/03/23 11:23:20;;;;;;;10.52;4.93;;;;;;;;;;5106753;27;20015;-72
2022/03/23 11:25:47;;;;;;;8.73;4.43;;;;;;;;;;5104266;27;20037;-70
2022/03/23 11:28:16;;;;;;;11.02;4.40;;;;;;;;;;5103544;27;20030;-71
2022/03/23 11:30:42;;;;;;;6.57;3.75;;;;;;;;;;5103728;27;20027;-72
2022/03/23 11:33:09;;;;;;;10.95;3.72;;;;;;;;;;5103089;27;20939;-72
2022/03/23 11:35:35;;;;;;;7.47;3.50;;;;;;;;;;5103107;27;20614;-71
2022/03/23 11:38:00;;;;;;;20.42;7.65;;;;;;;;;;5105637;27;20105;-71
2022/03/23 11:40:26;;;;;;;11.23;6.18;;;;;;;;;;5101240;27;20519;-70
2022/03/23 11:42:52;;;;;;;8.20;3.95;;;;;;;;;;5102044;27;20031;-71
2022/03/23 11:45:17;;;;;;;9.13;4.80;;;;;;;;;;5103949;27;20103;-70
2022/03/23 11:47:47;;;;;;;10.35;4.15;;;;;;;;;;5102197;27;20316;-71
2022/03/23 11:50:13;;;;;;;;;;;;;;;;;;5102397;27;20043;-72
2022/03/23 11:52:46;;;;;;;24.80;5.65;;;;;;;;;;5101303;27;19915;-72
2022/03/23 11:57:55;;;;;;;9.30;5.40;;;;;;;;;;5102529;27;20058;-71
2022/03/23 12:00:25;;;;;;;6.68;4.20;;;;;;;;;;5102416;27;20437;-73
2022/03/23 12:02:50;;;;;;;;;;;;;;;;;;5103128;27;20061;-71
2022/03/23 12:05:21;;;;;;;14.27;5.15;;;;;;;;;;5102303;27;20019;-71
2022/03/23 12:07:48;;;;;;;18.30;5.50;;;;;;;;;;5102904;27;20047;-71
2022/03/23 12:10:32;;;;;;;9.88;4.22;;;;;;;;;;5103779;27;20023;-71
2022/03/23 12:13:15;;;;;;;12.00;6.95;;;;;;;;;;5103047;27;20027;-74
2022/03/23 12:16:00;;;;;;;10.43;5.03;;;;;;;;;;5101175;27;20056;-71
2022/03/23 12:18:39;;;;;;;9.23;4.22;;;;;;;;;;5103857;27;20479;-71
2022/03/23 12:21:09;;;;;;;9.20;2.93;;;;;;;;;;5103150;27;20027;-70
2022/03/23 12:23:36;;;;;;;7.50;4.00;;;;;;;;;;5099707;27;20341;-71
2022/03/23 12:26:11;;;;;;;7.95;3.15;;;;;;;;;;5108835;27;20084;-71
2022/03/23 12:28:44;;;;;;;7.80;3.90;;;;;;;;;;5119397;27;20485;-70
2022/03/23 12:31:14;;;;;;;11.15;3.90;;;;;;;;;;5107752;27;20047;-73
2022/03/23 12:33:58;;;;;;;11.05;4.22;;;;;;;;;;5113837;27;20422;-74
2022/03/23 12:36:56;;;;;;;10.48;5.13;;;;;;;;;;5101117;27;20028;-71
2022/03/23 12:39:26;;;;;;;8.05;4.45;;;;;;;;;;5110808;27;20039;-70
2022/03/23 12:41:52;;;;;;;9.88;5.20;;;;;;;;;;5112974;27;20045;-71
2022/03/23 12:44:19;;;;;;;9.73;4.50;;;;;;;;;;5108725;27;20032;-73
2022/03/23 12:46:45;;;;;;;10.15;4.25;;;;;;;;;;5113910;27;20057;-73
2022/03/23 13:00:25;;;;;;;11.73;5.88;;;;;;;;;;5106465;27;20065;-70
2022/03/23 13:03:08;;;;;;;9.82;3.75;;;;;;;;;;5118179;27;20024;-71
2022/03/23 13:05:38;;;;;;;8.23;3.00;;;;;;;;;;5118539;27;20401;-69
2022/03/23 13:08:03;;;;;;;;;;;;;;;;;;5112372;27;20023;-71
2022/03/23 13:10:29;;;;;;;17.93;6.20;;;;;;;;;;5102021;27;19963;-71
2022/03/23 13:13:09;;;;;;;8.65;4.43;;;;;;;;;;5102776;27;20118;-70
2022/03/23 13:15:35;;;;;;;13.15;4.85;;;;;;;;;;5101765;27;20103;-73
2022/03/23 13:18:00;;;;;;;10.93;3.97;;;;;;;;;;5105144;27;20023;-69
2022/03/23 13:20:27;;;;;;;8.85;4.97;;;;;;;;;;5101672;27;20023;-74
2022/03/23 13:22:53;;;;;;;15.02;8.48;;;;;;;;;;5100437;27;20027;-74
2022/03/23 13:25:18;;;;;;;7.88;4.80;;;;;;;;;;5100535;27;20027;-72
2022/03/23 13:27:44;;;;;;;12.43;6.78;;;;;;;;;;5103870;27;20069;-73
2022/03/23 13:30:11;;;;;;;9.40;4.93;;;;;;;;;;5101644;27;20330;-73
2022/03/23 13:32:39;;;;;;;11.73;6.35;;;;;;;;;;5099298;27;20023;-73
2022/03/23 13:35:13;;;;;;;14.73;5.82;;;;;;;;;;5099949;28;20400;-71
2022/03/23 13:37:57;;;;;;;14.10;7.00;;;;;;;;;;5102954;28;20019;-71
2022/03/23 13:40:30;;;;;;;12.60;7.18;;;;;;;;;;5104165;28;20032;-71
2022/03/23 13:43:19;;;;;;;12.93;5.80;;;;;;;;;;5105327;28;20035;-72
2022/03/23 13:45:49;;;;;;;11.35;5.40;;;;;;;;;;5102027;28;20468;-74
2022/03/23 13:48:14;;;;;;;10.90;7.57;;;;;;;;;;5103724;28;20508;-71
2022/03/23 13:50:47;;;;;;;9.48;5.30;;;;;;;;;;5103658;27;20118;-71
2022/03/23 13:53:17;;;;;;;7.60;3.53;;;;;;;;;;5102958;28;20035;-72
2022/03/23 13:55:42;;;;;;;10.98;5.47;;;;;;;;;;5102601;27;20051;-72
2022/03/23 13:58:11;;;;;;;12.30;5.97;;;;;;;;;;5098438;28;20062;-73
2022/03/23 14:00:37;;;;;;;7.78;4.18;;;;;;;;;;5102281;27;20076;-70
2022/03/23 14:03:02;;;;;;;8.55;5.57;;;;;;;;;;5100556;27;20023;-71
2022/03/23 14:05:32;;;;;;;8.57;4.38;;;;;;;;;;5102073;27;20023;-74
2022/03/23 14:07:58;;;;;;;7.57;3.85;;;;;;;;;;5102195;28;20034;-74
2022/03/23 14:10:34;;;;;;;12.43;4.88;;;;;;;;;;5100919;28;20055;-75
2022/03/23 14:13:03;;;;;;;12.85;6.10;;;;;;;;;;5100386;28;20412;-70
2022/03/23 14:15:31;;;;;;;6.97;3.60;;;;;;;;;;5100385;28;20106;-72
2022/03/23 14:17:57;;;;;;;17.45;7.40;;;;;;;;;;5102805;27;20038;-75
2022/03/23 14:20:24;;;;;;;14.85;7.00;;;;;;;;;;5100320;28;20117;-74
2022/03/23 14:22:50;;;;;;;22.23;13.05;;;;;;;;;;5109652;28;20028;-69
2022/03/23 14:25:18;;;;;;;10.48;4.95;;;;;;;;;;5105304;27;20015;-70
2022/03/23 14:27:45;;;;;;;12.93;7.30;;;;;;;;;;5105068;27;20035;-73
2022/03/23 14:30:12;;;;;;;8.80;4.07;;;;;;;;;;5114241;27;20066;-71
2022/03/23 14:32:56;;;;;;;9.10;4.68;;;;;;;;;;5121368;27;20050;-71
2022/03/23 14:35:43;;;;;;;10.23;4.80;;;;;;;;;;5121458;27;20172;-69
2022/03/23 14:38:19;;;;;;;10.15;5.78;;;;;;;;;;5120477;27;20028;-69
2022/03/23 14:40:45;;;;;;;19.45;11.48;;;;;;;;;;5117097;27;20092;-71
2022/03/23 14:43:29;;;;;;;27.85;17.95;;;;;;;;;;5119078;27;20019;-70
2022/03/23 14:45:55;;;;;;;34.88;23.98;;;;;;;;;;5107617;27;20031;-73
2022/03/23 14:48:25;;;;;;;22.88;12.05;;;;;;;;;;5105635;27;20114;-71
2022/03/23 14:50:52;;;;;;;18.02;10.40;;;;;;;;;;5107385;27;20446;-71
2022/03/23 14:53:20;;;;;;;19.17;9.52;;;;;;;;;;5107889;27;20038;-68
2022/03/23 14:55:46;;;;;;;16.98;7.07;;;;;;;;;;5118200;27;20067;-68
2022/03/23 14:58:24;;;;;;;11.85;5.63;;;;;;;;;;5118008;27;20047;-72
2022/03/23 15:00:51;;;;;;;13.68;7.25;;;;;;;;;;5107329;27;20023;-70
2022/03/23 15:03:17;;;;;;;10.40;5.47;;;;;;;;;;5108130;27;20027;-70
2022/03/23 15:13:54;;;;;;;13.80;8.20;;;;;;;;;;5105945;27;20433;-72
2022/03/23 15:16:20;;;;;;;34.60;20.75;;;;;;;;;;5103872;27;20055;-70
2022/03/23 15:18:45;;;;;;;15.55;8.27;;;;;;;;;;5106161;27;20046;-71
2022/03/23 15:21:11;;;;;;;11.93;7.47;;;;;;;;;;5111601;27;20043;-72
2022/03/23 15:23:37;;;;;;;15.75;7.70;;;;;;;;;;5114973;27;20057;-73
2022/03/23 15:26:02;;;;;;;19.95;10.50;;;;;;;;;;5106665;27;20031;-73
2022/03/23 15:28:28;;;;;;;15.50;8.80;;;;;;;;;;5106900;27;20031;-69
2022/03/23 15:30:53;;;;;;;12.63;7.45;;;;;;;;;;5110624;27;20028;-71